sensor_id;sensor_type;location;lat;lon;timestamp;P1;durP1;ratioP1;P2;durP2;ratioP2
10529;SDS011;5313;48.834;9.228;2022-11-30T00:00:11;54.70;;;26.90;;
10529;SDS011;5313;48.834;9.228;2022-11-30T00:02:37;55.23;;;27.03;;
10529;SDS011;5313;48.834;9.228;2022-11-30T00:05:03;48.63;;;26.53;;
10529;SDS011;5313;48.834;9.228;2022-11-30T00:07:29;54.40;;;26.10;;
10529;SDS011;5313;48.834;9.228;2022-11-30T00:09:54;50.63;;;26.80;;
10529;SDS011;5313;48.834;9.228;2022-11-30T00:12:20;53.50;;;26.20;;
10529;SDS011;5313;48.834;9.228;2022-11-30T00:14:45;52.80;;;27.07;;
10529;SDS011;5313;48.834;9.228;2022-11-30T00:17:11;54.93;;;27.70;;
10529;SDS011;5313;48.834;9.228;2022-11-30T00:19:36;58.50;;;27.30;;
10529;SDS011;5313;48.834;9.228;2022-11-30T00:22:02;56.20;;;26.40;;
10529;SDS011;5313;48.834;9.228;2022-11-30T00:24:27;50.83;;;27.50;;
10529;SDS011;5313;48.834;9.228;2022-11-30T00:26:53;55.20;;;28.33;;
10529;SDS011;5313;48.834;9.228;2022-11-30T00:29:18;54.17;;;26.80;;
10529;SDS011;5313;48.834;9.228;2022-11-30T00:31:44;49.47;;;27.33;;
10529;SDS011;5313;48.834;9.228;2022-11-30T00:34:10;58.10;;;27.37;;
10529;SDS011;5313;48.834;9.228;2022-11-30T00:36:35;57.40;;;27.67;;
10529;SDS011;5313;48.834;9.228;2022-11-30T00:39:01;56.60;;;27.60;;
10529;SDS011;5313;48.834;9.228;2022-11-30T00:41:27;51.87;;;27.67;;
10529;SDS011;5313;48.834;9.228;2022-11-30T00:43:52;49.93;;;26.43;;
10529;SDS011;5313;48.834;9.228;2022-11-30T00:46:18;55.93;;;27.63;;
10529;SDS011;5313;48.834;9.228;2022-11-30T00:48:43;59.43;;;28.57;;
10529;SDS011;5313;48.834;9.228;2022-11-30T00:51:09;53.97;;;28.07;;
10529;SDS011;5313;48.834;9.228;2022-11-30T00:53:36;60.40;;;29.70;;
10529;SDS011;5313;48.834;9.228;2022-11-30T00:56:02;61.50;;;28.90;;
10529;SDS011;5313;48.834;9.228;2022-11-30T00:58:28;56.07;;;28.60;;
10529;SDS011;5313;48.834;9.228;2022-11-30T01:00:53;62.70;;;28.83;;
10529;SDS011;5313;48.834;9.228;2022-11-30T01:03:19;54.73;;;29.30;;
10529;SDS011;5313;48.834;9.228;2022-11-30T01:05:44;56.20;;;28.60;;
10529;SDS011;5313;48.834;9.228;2022-11-30T01:08:10;67.90;;;30.07;;
10529;SDS011;5313;48.834;9.228;2022-11-30T01:10:37;59.03;;;30.73;;
10529;SDS011;5313;48.834;9.228;2022-11-30T01:13:04;62.10;;;30.03;;
10529;SDS011;5313;48.834;9.228;2022-11-30T01:15:30;58.37;;;28.47;;
10529;SDS011;5313;48.834;9.228;2022-11-30T01:17:59;59.90;;;29.33;;
10529;SDS011;5313;48.834;9.228;2022-11-30T01:20:24;59.10;;;30.70;;
10529;SDS011;5313;48.834;9.228;2022-11-30T01:22:50;57.40;;;28.33;;
10529;SDS011;5313;48.834;9.228;2022-11-30T01:25:16;56.40;;;29.73;;
10529;SDS011;5313;48.834;9.228;2022-11-30T01:27:41;57.93;;;29.37;;
10529;SDS011;5313;48.834;9.228;2022-11-30T01:30:07;59.97;;;29.60;;
10529;SDS011;5313;48.834;9.228;2022-11-30T01:32:33;59.57;;;29.50;;
10529;SDS011;5313;48.834;9.228;2022-11-30T01:34:58;60.07;;;28.90;;
10529;SDS011;5313;48.834;9.228;2022-11-30T01:37:24;61.57;;;29.33;;
10529;SDS011;5313;48.834;9.228;2022-11-30T01:39:49;59.57;;;29.77;;
10529;SDS011;5313;48.834;9.228;2022-11-30T01:42:16;58.87;;;27.97;;
10529;SDS011;5313;48.834;9.228;2022-11-30T01:47:16;53.00;;;27.03;;
10529;SDS011;5313;48.834;9.228;2022-11-30T01:49:45;58.53;;;28.77;;
10529;SDS011;5313;48.834;9.228;2022-11-30T01:52:16;54.80;;;28.30;;
10529;SDS011;5313;48.834;9.228;2022-11-30T01:54:51;52.37;;;27.83;;
10529;SDS011;5313;48.834;9.228;2022-11-30T01:57:30;60.40;;;29.00;;
10529;SDS011;5313;48.834;9.228;2022-11-30T02:00:02;54.93;;;27.50;;
10529;SDS011;5313;48.834;9.228;2022-11-30T02:02:32;50.43;;;26.10;;
10529;SDS011;5313;48.834;9.228;2022-11-30T02:05:06;53.73;;;25.27;;
10529;SDS011;5313;48.834;9.228;2022-11-30T02:07:33;57.00;;;27.93;;
10529;SDS011;5313;48.834;9.228;2022-11-30T02:09:59;52.57;;;28.10;;
10529;SDS011;5313;48.834;9.228;2022-11-30T02:12:26;56.17;;;27.23;;
10529;SDS011;5313;48.834;9.228;2022-11-30T02:15:06;54.67;;;26.90;;
10529;SDS011;5313;48.834;9.228;2022-11-30T02:17:45;55.60;;;28.03;;
10529;SDS011;5313;48.834;9.228;2022-11-30T02:23:39;54.03;;;26.67;;
10529;SDS011;5313;48.834;9.228;2022-11-30T02:26:33;54.23;;;26.00;;
10529;SDS011;5313;48.834;9.228;2022-11-30T02:29:23;56.03;;;27.60;;
10529;SDS011;5313;48.834;9.228;2022-11-30T02:32:01;51.90;;;26.30;;
10529;SDS011;5313;48.834;9.228;2022-11-30T02:34:55;54.83;;;26.93;;
10529;SDS011;5313;48.834;9.228;2022-11-30T02:37:23;51.03;;;25.23;;
10529;SDS011;5313;48.834;9.228;2022-11-30T02:39:50;48.27;;;25.43;;
10529;SDS011;5313;48.834;9.228;2022-11-30T02:42:16;51.47;;;25.07;;
10529;SDS011;5313;48.834;9.228;2022-11-30T02:44:42;50.13;;;26.37;;
10529;SDS011;5313;48.834;9.228;2022-11-30T02:47:20;52.33;;;26.03;;
10529;SDS011;5313;48.834;9.228;2022-11-30T02:50:14;49.90;;;26.17;;
10529;SDS011;5313;48.834;9.228;2022-11-30T02:52:45;51.67;;;26.47;;
10529;SDS011;5313;48.834;9.228;2022-11-30T02:55:13;52.97;;;25.93;;
10529;SDS011;5313;48.834;9.228;2022-11-30T02:57:41;48.77;;;26.17;;
10529;SDS011;5313;48.834;9.228;2022-11-30T03:00:08;53.23;;;27.13;;
10529;SDS011;5313;48.834;9.228;2022-11-30T03:02:35;51.10;;;25.87;;
10529;SDS011;5313;48.834;9.228;2022-11-30T03:05:01;47.57;;;25.40;;
10529;SDS011;5313;48.834;9.228;2022-11-30T03:07:28;44.80;;;24.23;;
10529;SDS011;5313;48.834;9.228;2022-11-30T03:09:53;48.00;;;23.93;;
10529;SDS011;5313;48.834;9.228;2022-11-30T03:12:19;47.60;;;25.67;;
10529;SDS011;5313;48.834;9.228;2022-11-30T03:14:44;48.67;;;25.37;;
10529;SDS011;5313;48.834;9.228;2022-11-30T03:17:10;47.30;;;24.23;;
10529;SDS011;5313;48.834;9.228;2022-11-30T03:19:35;46.73;;;24.50;;
10529;SDS011;5313;48.834;9.228;2022-11-30T03:22:01;53.90;;;25.27;;
10529;SDS011;5313;48.834;9.228;2022-11-30T03:24:27;42.90;;;24.40;;
10529;SDS011;5313;48.834;9.228;2022-11-30T03:26:52;44.47;;;23.23;;
10529;SDS011;5313;48.834;9.228;2022-11-30T03:29:18;50.67;;;24.77;;
10529;SDS011;5313;48.834;9.228;2022-11-30T03:31:43;48.07;;;24.17;;
10529;SDS011;5313;48.834;9.228;2022-11-30T03:34:09;48.17;;;23.87;;
10529;SDS011;5313;48.834;9.228;2022-11-30T03:36:34;51.93;;;25.00;;
10529;SDS011;5313;48.834;9.228;2022-11-30T03:39:00;44.27;;;24.40;;
10529;SDS011;5313;48.834;9.228;2022-11-30T03:41:26;47.10;;;25.43;;
10529;SDS011;5313;48.834;9.228;2022-11-30T03:43:52;47.97;;;24.47;;
10529;SDS011;5313;48.834;9.228;2022-11-30T03:46:17;46.13;;;24.17;;
10529;SDS011;5313;48.834;9.228;2022-11-30T03:48:43;49.00;;;25.43;;
10529;SDS011;5313;48.834;9.228;2022-11-30T03:51:09;46.40;;;24.13;;
10529;SDS011;5313;48.834;9.228;2022-11-30T03:53:36;49.93;;;24.17;;
10529;SDS011;5313;48.834;9.228;2022-11-30T03:56:03;45.17;;;24.60;;
10529;SDS011;5313;48.834;9.228;2022-11-30T03:58:31;44.97;;;23.87;;
10529;SDS011;5313;48.834;9.228;2022-11-30T04:01:00;49.93;;;24.83;;
10529;SDS011;5313;48.834;9.228;2022-11-30T04:03:31;45.00;;;23.17;;
10529;SDS011;5313;48.834;9.228;2022-11-30T04:05:57;44.23;;;22.80;;
10529;SDS011;5313;48.834;9.228;2022-11-30T04:08:23;41.80;;;23.23;;
10529;SDS011;5313;48.834;9.228;2022-11-30T04:10:49;43.27;;;23.27;;
10529;SDS011;5313;48.834;9.228;2022-11-30T04:13:16;46.37;;;23.73;;
10529;SDS011;5313;48.834;9.228;2022-11-30T04:15:42;55.37;;;24.10;;
10529;SDS011;5313;48.834;9.228;2022-11-30T04:18:11;48.63;;;23.47;;
10529;SDS011;5313;48.834;9.228;2022-11-30T04:20:37;41.67;;;22.70;;
10529;SDS011;5313;48.834;9.228;2022-11-30T04:23:03;45.77;;;23.83;;
10529;SDS011;5313;48.834;9.228;2022-11-30T04:25:28;47.13;;;23.87;;
10529;SDS011;5313;48.834;9.228;2022-11-30T04:27:54;46.30;;;24.33;;
10529;SDS011;5313;48.834;9.228;2022-11-30T04:30:19;44.67;;;23.73;;
10529;SDS011;5313;48.834;9.228;2022-11-30T04:32:45;45.77;;;23.67;;
10529;SDS011;5313;48.834;9.228;2022-11-30T04:35:10;48.83;;;24.27;;
10529;SDS011;5313;48.834;9.228;2022-11-30T04:37:36;45.57;;;23.30;;
10529;SDS011;5313;48.834;9.228;2022-11-30T04:40:02;42.70;;;22.87;;
10529;SDS011;5313;48.834;9.228;2022-11-30T04:42:28;47.10;;;23.40;;
10529;SDS011;5313;48.834;9.228;2022-11-30T04:44:53;47.23;;;23.57;;
10529;SDS011;5313;48.834;9.228;2022-11-30T04:47:19;42.47;;;23.03;;
10529;SDS011;5313;48.834;9.228;2022-11-30T04:49:44;43.80;;;23.73;;
10529;SDS011;5313;48.834;9.228;2022-11-30T04:52:10;44.40;;;22.20;;
10529;SDS011;5313;48.834;9.228;2022-11-30T04:54:35;42.00;;;22.33;;
10529;SDS011;5313;48.834;9.228;2022-11-30T04:57:01;36.83;;;20.47;;
10529;SDS011;5313;48.834;9.228;2022-11-30T04:59:27;42.47;;;21.50;;
10529;SDS011;5313;48.834;9.228;2022-11-30T05:01:52;40.13;;;21.93;;
10529;SDS011;5313;48.834;9.228;2022-11-30T05:04:18;37.53;;;20.57;;
10529;SDS011;5313;48.834;9.228;2022-11-30T05:06:44;38.90;;;21.03;;
10529;SDS011;5313;48.834;9.228;2022-11-30T05:09:09;40.80;;;21.90;;
10529;SDS011;5313;48.834;9.228;2022-11-30T05:11:35;43.63;;;22.63;;
10529;SDS011;5313;48.834;9.228;2022-11-30T05:14:00;38.90;;;21.40;;
10529;SDS011;5313;48.834;9.228;2022-11-30T05:16:26;37.40;;;20.47;;
10529;SDS011;5313;48.834;9.228;2022-11-30T05:18:51;38.90;;;20.20;;
10529;SDS011;5313;48.834;9.228;2022-11-30T05:21:17;39.17;;;21.60;;
10529;SDS011;5313;48.834;9.228;2022-11-30T05:23:42;42.30;;;21.40;;
10529;SDS011;5313;48.834;9.228;2022-11-30T05:26:08;36.13;;;20.93;;
10529;SDS011;5313;48.834;9.228;2022-11-30T05:28:34;41.67;;;20.77;;
10529;SDS011;5313;48.834;9.228;2022-11-30T05:31:03;40.53;;;20.87;;
10529;SDS011;5313;48.834;9.228;2022-11-30T05:33:29;36.77;;;20.27;;
10529;SDS011;5313;48.834;9.228;2022-11-30T05:35:54;40.33;;;21.00;;
10529;SDS011;5313;48.834;9.228;2022-11-30T05:38:20;39.43;;;20.93;;
10529;SDS011;5313;48.834;9.228;2022-11-30T05:40:45;38.27;;;20.27;;
10529;SDS011;5313;48.834;9.228;2022-11-30T05:43:11;39.27;;;20.93;;
10529;SDS011;5313;48.834;9.228;2022-11-30T05:45:37;37.50;;;21.00;;
10529;SDS011;5313;48.834;9.228;2022-11-30T05:48:03;37.40;;;20.03;;
10529;SDS011;5313;48.834;9.228;2022-11-30T05:50:28;42.47;;;20.83;;
10529;SDS011;5313;48.834;9.228;2022-11-30T05:52:54;35.10;;;19.77;;
10529;SDS011;5313;48.834;9.228;2022-11-30T05:55:21;38.00;;;20.70;;
10529;SDS011;5313;48.834;9.228;2022-11-30T05:57:47;37.97;;;20.13;;
10529;SDS011;5313;48.834;9.228;2022-11-30T06:00:13;35.53;;;19.33;;
10529;SDS011;5313;48.834;9.228;2022-11-30T06:02:39;35.27;;;19.67;;
10529;SDS011;5313;48.834;9.228;2022-11-30T06:05:05;35.20;;;18.90;;
10529;SDS011;5313;48.834;9.228;2022-11-30T06:07:31;36.67;;;19.73;;
10529;SDS011;5313;48.834;9.228;2022-11-30T06:09:56;38.60;;;20.77;;
10529;SDS011;5313;48.834;9.228;2022-11-30T06:12:22;32.70;;;19.00;;
10529;SDS011;5313;48.834;9.228;2022-11-30T06:14:47;33.37;;;19.90;;
10529;SDS011;5313;48.834;9.228;2022-11-30T06:17:14;36.67;;;18.13;;
10529;SDS011;5313;48.834;9.228;2022-11-30T06:19:41;35.60;;;20.20;;
10529;SDS011;5313;48.834;9.228;2022-11-30T06:22:06;32.67;;;17.07;;
10529;SDS011;5313;48.834;9.228;2022-11-30T06:24:32;31.43;;;18.50;;
10529;SDS011;5313;48.834;9.228;2022-11-30T06:26:57;31.40;;;18.73;;
10529;SDS011;5313;48.834;9.228;2022-11-30T06:29:23;34.73;;;18.50;;
10529;SDS011;5313;48.834;9.228;2022-11-30T06:31:48;35.40;;;19.43;;
10529;SDS011;5313;48.834;9.228;2022-11-30T06:34:14;32.07;;;18.33;;
10529;SDS011;5313;48.834;9.228;2022-11-30T06:36:39;32.70;;;17.83;;
10529;SDS011;5313;48.834;9.228;2022-11-30T06:39:05;30.10;;;17.33;;
10529;SDS011;5313;48.834;9.228;2022-11-30T06:41:32;35.53;;;17.77;;
10529;SDS011;5313;48.834;9.228;2022-11-30T06:43:58;27.13;;;16.57;;
10529;SDS011;5313;48.834;9.228;2022-11-30T06:46:23;29.47;;;17.70;;
10529;SDS011;5313;48.834;9.228;2022-11-30T06:48:50;30.83;;;17.43;;
10529;SDS011;5313;48.834;9.228;2022-11-30T06:51:16;32.00;;;16.90;;
10529;SDS011;5313;48.834;9.228;2022-11-30T06:53:42;27.73;;;16.33;;
10529;SDS011;5313;48.834;9.228;2022-11-30T06:56:08;28.97;;;15.80;;
10529;SDS011;5313;48.834;9.228;2022-11-30T06:58:34;27.97;;;16.37;;
10529;SDS011;5313;48.834;9.228;2022-11-30T07:01:02;26.87;;;15.93;;
10529;SDS011;5313;48.834;9.228;2022-11-30T07:03:28;26.87;;;15.23;;
10529;SDS011;5313;48.834;9.228;2022-11-30T07:05:54;28.07;;;15.30;;
10529;SDS011;5313;48.834;9.228;2022-11-30T07:08:19;28.07;;;16.33;;
10529;SDS011;5313;48.834;9.228;2022-11-30T07:10:46;26.90;;;15.47;;
10529;SDS011;5313;48.834;9.228;2022-11-30T07:13:12;27.30;;;15.07;;
10529;SDS011;5313;48.834;9.228;2022-11-30T07:15:39;28.23;;;15.90;;
10529;SDS011;5313;48.834;9.228;2022-11-30T07:18:06;30.60;;;17.30;;
10529;SDS011;5313;48.834;9.228;2022-11-30T07:20:32;27.37;;;15.67;;
10529;SDS011;5313;48.834;9.228;2022-11-30T07:22:58;28.80;;;15.87;;
10529;SDS011;5313;48.834;9.228;2022-11-30T07:25:44;29.17;;;16.97;;
10529;SDS011;5313;48.834;9.228;2022-11-30T07:28:28;29.57;;;15.93;;
10529;SDS011;5313;48.834;9.228;2022-11-30T07:30:53;29.20;;;15.60;;
10529;SDS011;5313;48.834;9.228;2022-11-30T07:33:19;33.50;;;17.03;;
10529;SDS011;5313;48.834;9.228;2022-11-30T07:35:44;29.30;;;15.80;;
10529;SDS011;5313;48.834;9.228;2022-11-30T07:38:10;30.90;;;16.37;;
10529;SDS011;5313;48.834;9.228;2022-11-30T07:40:35;29.27;;;16.00;;
10529;SDS011;5313;48.834;9.228;2022-11-30T07:43:01;25.03;;;14.53;;
10529;SDS011;5313;48.834;9.228;2022-11-30T07:45:26;29.50;;;15.73;;
10529;SDS011;5313;48.834;9.228;2022-11-30T07:47:52;28.50;;;16.17;;
10529;SDS011;5313;48.834;9.228;2022-11-30T07:50:18;26.67;;;15.63;;
10529;SDS011;5313;48.834;9.228;2022-11-30T07:52:43;27.57;;;16.33;;
10529;SDS011;5313;48.834;9.228;2022-11-30T07:55:09;28.50;;;16.20;;
10529;SDS011;5313;48.834;9.228;2022-11-30T07:57:34;27.13;;;16.03;;
10529;SDS011;5313;48.834;9.228;2022-11-30T08:00:00;30.67;;;16.97;;
10529;SDS011;5313;48.834;9.228;2022-11-30T08:02:26;30.13;;;15.93;;
10529;SDS011;5313;48.834;9.228;2022-11-30T08:04:51;26.30;;;15.63;;
10529;SDS011;5313;48.834;9.228;2022-11-30T08:07:19;24.40;;;15.50;;
10529;SDS011;5313;48.834;9.228;2022-11-30T08:09:44;28.13;;;15.73;;
10529;SDS011;5313;48.834;9.228;2022-11-30T08:12:10;24.80;;;15.77;;
10529;SDS011;5313;48.834;9.228;2022-11-30T08:14:35;27.77;;;16.17;;
10529;SDS011;5313;48.834;9.228;2022-11-30T08:17:01;27.50;;;17.23;;
10529;SDS011;5313;48.834;9.228;2022-11-30T08:19:26;30.53;;;16.33;;
10529;SDS011;5313;48.834;9.228;2022-11-30T08:21:52;28.90;;;16.03;;
10529;SDS011;5313;48.834;9.228;2022-11-30T08:24:17;26.73;;;15.63;;
10529;SDS011;5313;48.834;9.228;2022-11-30T08:26:43;26.97;;;15.17;;
10529;SDS011;5313;48.834;9.228;2022-11-30T08:29:09;25.90;;;15.77;;
10529;SDS011;5313;48.834;9.228;2022-11-30T08:31:35;28.73;;;16.43;;
10529;SDS011;5313;48.834;9.228;2022-11-30T08:36:28;25.53;;;14.50;;
10529;SDS011;5313;48.834;9.228;2022-11-30T08:38:55;33.17;;;16.97;;
10529;SDS011;5313;48.834;9.228;2022-11-30T08:41:22;27.87;;;16.47;;
10529;SDS011;5313;48.834;9.228;2022-11-30T08:43:48;26.03;;;15.80;;
10529;SDS011;5313;48.834;9.228;2022-11-30T08:46:15;30.13;;;16.50;;
10529;SDS011;5313;48.834;9.228;2022-11-30T08:48:42;29.13;;;15.67;;
10529;SDS011;5313;48.834;9.228;2022-11-30T08:51:11;31.10;;;16.17;;
10529;SDS011;5313;48.834;9.228;2022-11-30T08:53:39;29.27;;;16.43;;
10529;SDS011;5313;48.834;9.228;2022-11-30T08:56:06;26.53;;;15.60;;
10529;SDS011;5313;48.834;9.228;2022-11-30T08:58:35;27.20;;;16.23;;
10529;SDS011;5313;48.834;9.228;2022-11-30T09:03:38;28.60;;;16.17;;
10529;SDS011;5313;48.834;9.228;2022-11-30T09:06:05;25.83;;;15.43;;
10529;SDS011;5313;48.834;9.228;2022-11-30T09:08:32;27.03;;;15.90;;
10529;SDS011;5313;48.834;9.228;2022-11-30T09:11:06;26.17;;;16.43;;
10529;SDS011;5313;48.834;9.228;2022-11-30T09:13:43;24.83;;;15.87;;
10529;SDS011;5313;48.834;9.228;2022-11-30T09:16:09;25.20;;;15.83;;
10529;SDS011;5313;48.834;9.228;2022-11-30T09:18:35;29.10;;;16.10;;
10529;SDS011;5313;48.834;9.228;2022-11-30T09:21:02;27.57;;;16.83;;
10529;SDS011;5313;48.834;9.228;2022-11-30T09:23:33;26.90;;;16.33;;
10529;SDS011;5313;48.834;9.228;2022-11-30T09:25:59;31.83;;;16.63;;
10529;SDS011;5313;48.834;9.228;2022-11-30T09:28:26;28.37;;;16.00;;
10529;SDS011;5313;48.834;9.228;2022-11-30T09:30:54;27.60;;;16.80;;
10529;SDS011;5313;48.834;9.228;2022-11-30T09:33:29;29.53;;;16.43;;
10529;SDS011;5313;48.834;9.228;2022-11-30T09:35:58;29.50;;;16.30;;
10529;SDS011;5313;48.834;9.228;2022-11-30T09:38:26;26.47;;;15.80;;
10529;SDS011;5313;48.834;9.228;2022-11-30T09:40:53;27.93;;;16.30;;
10529;SDS011;5313;48.834;9.228;2022-11-30T09:45:55;28.40;;;16.20;;
10529;SDS011;5313;48.834;9.228;2022-11-30T09:51:48;27.23;;;14.63;;
10529;SDS011;5313;48.834;9.228;2022-11-30T09:54:10;28.57;;;16.33;;
10529;SDS011;5313;48.834;9.228;2022-11-30T09:57:12;26.80;;;15.70;;
10529;SDS011;5313;48.834;9.228;2022-11-30T09:59:54;27.00;;;15.07;;
10529;SDS011;5313;48.834;9.228;2022-11-30T10:02:29;27.53;;;14.90;;
10529;SDS011;5313;48.834;9.228;2022-11-30T10:04:57;24.10;;;14.67;;
10529;SDS011;5313;48.834;9.228;2022-11-30T10:10:18;27.73;;;15.07;;
10529;SDS011;5313;48.834;9.228;2022-11-30T10:12:55;23.50;;;14.67;;
10529;SDS011;5313;48.834;9.228;2022-11-30T10:18:59;27.53;;;15.13;;
10529;SDS011;5313;48.834;9.228;2022-11-30T10:21:49;24.27;;;14.23;;
10529;SDS011;5313;48.834;9.228;2022-11-30T10:26:57;26.30;;;14.33;;
10529;SDS011;5313;48.834;9.228;2022-11-30T10:29:30;25.10;;;14.63;;
10529;SDS011;5313;48.834;9.228;2022-11-30T10:32:09;25.57;;;14.33;;
10529;SDS011;5313;48.834;9.228;2022-11-30T10:34:39;24.67;;;14.23;;
10529;SDS011;5313;48.834;9.228;2022-11-30T10:37:11;24.10;;;14.03;;
10529;SDS011;5313;48.834;9.228;2022-11-30T10:42:45;22.00;;;13.07;;
10529;SDS011;5313;48.834;9.228;2022-11-30T10:45:23;26.37;;;14.53;;
10529;SDS011;5313;48.834;9.228;2022-11-30T10:50:31;22.93;;;13.43;;
10529;SDS011;5313;48.834;9.228;2022-11-30T10:52:58;22.37;;;13.10;;
10529;SDS011;5313;48.834;9.228;2022-11-30T10:55:26;21.77;;;12.13;;
10529;SDS011;5313;48.834;9.228;2022-11-30T10:58:19;23.83;;;14.53;;
10529;SDS011;5313;48.834;9.228;2022-11-30T11:03:27;21.97;;;13.33;;
10529;SDS011;5313;48.834;9.228;2022-11-30T11:08:39;21.73;;;13.20;;
10529;SDS011;5313;48.834;9.228;2022-11-30T11:13:50;19.90;;;12.67;;
10529;SDS011;5313;48.834;9.228;2022-11-30T11:16:16;20.37;;;12.33;;
10529;SDS011;5313;48.834;9.228;2022-11-30T11:18:52;22.70;;;13.27;;
10529;SDS011;5313;48.834;9.228;2022-11-30T11:21:19;18.10;;;12.00;;
10529;SDS011;5313;48.834;9.228;2022-11-30T11:23:47;18.60;;;11.20;;
10529;SDS011;5313;48.834;9.228;2022-11-30T11:28:46;18.73;;;11.67;;
10529;SDS011;5313;48.834;9.228;2022-11-30T11:34:03;19.73;;;12.23;;
10529;SDS011;5313;48.834;9.228;2022-11-30T11:36:31;19.57;;;12.23;;
10529;SDS011;5313;48.834;9.228;2022-11-30T11:39:00;20.20;;;13.17;;
10529;SDS011;5313;48.834;9.228;2022-11-30T11:41:27;19.63;;;12.40;;
10529;SDS011;5313;48.834;9.228;2022-11-30T11:44:00;20.30;;;12.47;;
10529;SDS011;5313;48.834;9.228;2022-11-30T11:49:45;21.20;;;12.33;;
10529;SDS011;5313;48.834;9.228;2022-11-30T11:57:26;20.73;;;12.37;;
10529;SDS011;5313;48.834;9.228;2022-11-30T12:00:35;18.97;;;11.67;;
10529;SDS011;5313;48.834;9.228;2022-11-30T12:03:10;19.67;;;11.90;;
10529;SDS011;5313;48.834;9.228;2022-11-30T12:05:41;19.67;;;11.63;;
10529;SDS011;5313;48.834;9.228;2022-11-30T12:10:41;20.97;;;12.57;;
10529;SDS011;5313;48.834;9.228;2022-11-30T12:13:17;21.50;;;12.97;;
10529;SDS011;5313;48.834;9.228;2022-11-30T12:18:50;20.40;;;12.53;;
10529;SDS011;5313;48.834;9.228;2022-11-30T12:21:49;19.07;;;11.63;;
10529;SDS011;5313;48.834;9.228;2022-11-30T12:24:29;20.40;;;11.83;;
10529;SDS011;5313;48.834;9.228;2022-11-30T12:27:25;20.80;;;12.63;;
10529;SDS011;5313;48.834;9.228;2022-11-30T12:30:10;21.33;;;13.10;;
10529;SDS011;5313;48.834;9.228;2022-11-30T12:35:35;22.10;;;13.27;;
10529;SDS011;5313;48.834;9.228;2022-11-30T12:43:52;20.27;;;12.13;;
10529;SDS011;5313;48.834;9.228;2022-11-30T12:51:43;20.17;;;12.40;;
10529;SDS011;5313;48.834;9.228;2022-11-30T12:57:18;22.03;;;12.47;;
10529;SDS011;5313;48.834;9.228;2022-11-30T13:00:03;19.07;;;11.70;;
10529;SDS011;5313;48.834;9.228;2022-11-30T13:02:42;19.47;;;11.33;;
10529;SDS011;5313;48.834;9.228;2022-11-30T13:05:22;19.10;;;11.30;;
10529;SDS011;5313;48.834;9.228;2022-11-30T13:07:58;21.23;;;12.17;;
10529;SDS011;5313;48.834;9.228;2022-11-30T13:10:54;20.57;;;11.23;;
10529;SDS011;5313;48.834;9.228;2022-11-30T13:13:25;18.13;;;11.67;;
10529;SDS011;5313;48.834;9.228;2022-11-30T13:15:54;18.93;;;11.57;;
10529;SDS011;5313;48.834;9.228;2022-11-30T13:18:22;18.93;;;11.13;;
10529;SDS011;5313;48.834;9.228;2022-11-30T13:20:56;20.10;;;11.77;;
10529;SDS011;5313;48.834;9.228;2022-11-30T13:26:08;17.47;;;10.43;;
10529;SDS011;5313;48.834;9.228;2022-11-30T13:29:02;17.33;;;10.60;;
10529;SDS011;5313;48.834;9.228;2022-11-30T13:31:50;19.53;;;12.23;;
10529;SDS011;5313;48.834;9.228;2022-11-30T13:34:28;18.33;;;11.83;;
10529;SDS011;5313;48.834;9.228;2022-11-30T13:36:59;19.77;;;13.00;;
10529;SDS011;5313;48.834;9.228;2022-11-30T13:39:25;20.07;;;12.17;;
10529;SDS011;5313;48.834;9.228;2022-11-30T13:44:31;19.10;;;12.00;;
10529;SDS011;5313;48.834;9.228;2022-11-30T13:47:03;20.60;;;12.03;;
10529;SDS011;5313;48.834;9.228;2022-11-30T13:49:34;21.10;;;12.40;;
10529;SDS011;5313;48.834;9.228;2022-11-30T13:52:01;20.23;;;12.57;;
10529;SDS011;5313;48.834;9.228;2022-11-30T13:54:44;17.13;;;11.03;;
10529;SDS011;5313;48.834;9.228;2022-11-30T13:57:18;18.20;;;10.63;;
10529;SDS011;5313;48.834;9.228;2022-11-30T14:00:00;19.97;;;10.87;;
10529;SDS011;5313;48.834;9.228;2022-11-30T14:05:45;14.30;;;9.30;;
10529;SDS011;5313;48.834;9.228;2022-11-30T14:08:15;14.40;;;9.07;;
10529;SDS011;5313;48.834;9.228;2022-11-30T14:14:11;15.97;;;9.63;;
10529;SDS011;5313;48.834;9.228;2022-11-30T14:17:01;15.07;;;9.47;;
10529;SDS011;5313;48.834;9.228;2022-11-30T14:19:27;17.53;;;10.10;;
10529;SDS011;5313;48.834;9.228;2022-11-30T14:21:53;15.73;;;9.73;;
10529;SDS011;5313;48.834;9.228;2022-11-30T14:24:20;16.40;;;9.57;;
10529;SDS011;5313;48.834;9.228;2022-11-30T14:26:48;16.07;;;9.03;;
10529;SDS011;5313;48.834;9.228;2022-11-30T14:34:35;14.57;;;9.30;;
10529;SDS011;5313;48.834;9.228;2022-11-30T14:37:25;16.80;;;10.07;;
10529;SDS011;5313;48.834;9.228;2022-11-30T14:39:55;16.00;;;9.90;;
10529;SDS011;5313;48.834;9.228;2022-11-30T14:42:28;15.43;;;10.03;;
10529;SDS011;5313;48.834;9.228;2022-11-30T14:44:55;16.47;;;10.00;;
10529;SDS011;5313;48.834;9.228;2022-11-30T14:47:28;15.23;;;9.60;;
10529;SDS011;5313;48.834;9.228;2022-11-30T14:50:01;16.83;;;10.37;;
10529;SDS011;5313;48.834;9.228;2022-11-30T14:55:23;23.47;;;12.80;;
10529;SDS011;5313;48.834;9.228;2022-11-30T15:00:54;19.33;;;11.77;;
10529;SDS011;5313;48.834;9.228;2022-11-30T15:03:28;19.53;;;11.93;;
10529;SDS011;5313;48.834;9.228;2022-11-30T15:05:57;22.17;;;12.93;;
10529;SDS011;5313;48.834;9.228;2022-11-30T15:08:31;19.40;;;11.10;;
10529;SDS011;5313;48.834;9.228;2022-11-30T15:11:04;20.50;;;12.30;;
10529;SDS011;5313;48.834;9.228;2022-11-30T15:13:31;20.40;;;12.60;;
10529;SDS011;5313;48.834;9.228;2022-11-30T15:15:58;20.30;;;11.70;;
10529;SDS011;5313;48.834;9.228;2022-11-30T15:18:24;22.67;;;12.57;;
10529;SDS011;5313;48.834;9.228;2022-11-30T15:20:54;20.40;;;12.57;;
10529;SDS011;5313;48.834;9.228;2022-11-30T15:23:24;19.13;;;11.83;;
10529;SDS011;5313;48.834;9.228;2022-11-30T15:25:55;22.57;;;12.70;;
10529;SDS011;5313;48.834;9.228;2022-11-30T15:28:25;24.50;;;12.77;;
10529;SDS011;5313;48.834;9.228;2022-11-30T15:30:58;21.27;;;12.47;;
10529;SDS011;5313;48.834;9.228;2022-11-30T15:33:41;21.80;;;11.63;;
10529;SDS011;5313;48.834;9.228;2022-11-30T15:36:09;19.00;;;11.20;;
10529;SDS011;5313;48.834;9.228;2022-11-30T15:38:35;19.73;;;12.10;;
10529;SDS011;5313;48.834;9.228;2022-11-30T15:41:02;21.37;;;12.10;;
10529;SDS011;5313;48.834;9.228;2022-11-30T15:43:34;20.67;;;12.20;;
10529;SDS011;5313;48.834;9.228;2022-11-30T15:46:02;26.47;;;13.37;;
10529;SDS011;5313;48.834;9.228;2022-11-30T15:51:02;24.60;;;13.90;;
10529;SDS011;5313;48.834;9.228;2022-11-30T15:55:59;24.03;;;13.93;;
10529;SDS011;5313;48.834;9.228;2022-11-30T15:58:32;26.13;;;15.03;;
10529;SDS011;5313;48.834;9.228;2022-11-30T16:01:12;23.03;;;13.80;;
10529;SDS011;5313;48.834;9.228;2022-11-30T16:06:19;26.10;;;14.37;;
10529;SDS011;5313;48.834;9.228;2022-11-30T16:08:49;27.50;;;15.63;;
10529;SDS011;5313;48.834;9.228;2022-11-30T16:11:15;27.00;;;14.87;;
10529;SDS011;5313;48.834;9.228;2022-11-30T16:13:41;25.37;;;14.60;;
10529;SDS011;5313;48.834;9.228;2022-11-30T16:16:16;25.23;;;14.73;;
10529;SDS011;5313;48.834;9.228;2022-11-30T16:18:44;25.50;;;15.23;;
10529;SDS011;5313;48.834;9.228;2022-11-30T16:21:11;30.10;;;16.47;;
10529;SDS011;5313;48.834;9.228;2022-11-30T16:23:40;26.40;;;15.27;;
10529;SDS011;5313;48.834;9.228;2022-11-30T16:26:09;24.83;;;14.87;;
10529;SDS011;5313;48.834;9.228;2022-11-30T16:28:37;25.47;;;14.50;;
10529;SDS011;5313;48.834;9.228;2022-11-30T16:31:03;26.33;;;15.07;;
10529;SDS011;5313;48.834;9.228;2022-11-30T16:33:28;25.33;;;14.70;;